createdAt,value
2023-04-15T00:02:21.105Z,9.50
2023-04-15T00:05:22.801Z,10.52
2023-04-15T00:08:24.518Z,13.32
2023-04-15T00:11:26.179Z,15.15
2023-04-15T00:14:28.203Z,10.02
2023-04-15T00:17:30.246Z,8.60
2023-04-15T00:20:32.376Z,12.57
2023-04-15T00:23:33.986Z,12.02
2023-04-15T00:26:35.820Z,9.27
2023-04-15T00:29:37.468Z,10.27
2023-04-15T00:32:39.110Z,9.40
2023-04-15T00:35:40.775Z,11.80
2023-04-15T00:38:42.631Z,10.63
2023-04-15T00:41:45.652Z,9.57
2023-04-15T00:44:47.402Z,10.63
2023-04-15T00:47:49.755Z,10.77
2023-04-15T00:50:52.010Z,9.70
2023-04-15T00:53:53.639Z,10.27
2023-04-15T00:56:55.273Z,10.68
2023-04-15T00:59:58.111Z,10.70
2023-04-15T01:03:00.037Z,11.23
2023-04-15T01:06:03.895Z,9.10
2023-04-15T01:09:06.354Z,11.52
2023-04-15T01:12:12.114Z,11.00
2023-04-15T01:15:13.759Z,12.95
2023-04-15T01:18:15.950Z,10.35
2023-04-15T01:21:18.235Z,9.23
2023-04-15T01:24:20.221Z,11.10
2023-04-15T01:27:22.610Z,11.82
2023-04-15T01:30:24.559Z,13.30
2023-04-15T01:33:26.312Z,10.38
2023-04-15T01:36:28.305Z,11.50
2023-04-15T01:39:29.917Z,10.80
2023-04-15T01:42:31.561Z,11.57
2023-04-15T01:45:33.276Z,10.25
2023-04-15T01:48:34.902Z,9.38
2023-04-15T01:51:36.522Z,11.57
2023-04-15T01:54:38.136Z,11.98
2023-04-15T01:57:40.122Z,12.63
2023-04-15T02:00:41.822Z,12.18
2023-04-15T02:03:43.567Z,11.70
2023-04-15T02:06:46.156Z,13.15
2023-04-15T02:09:47.907Z,12.30
2023-04-15T02:12:49.560Z,9.57
2023-04-15T02:15:52.650Z,11.25
2023-04-15T02:18:54.269Z,8.40
2023-04-15T02:21:55.932Z,9.23
2023-04-15T02:24:57.630Z,9.50
2023-04-15T02:27:59.292Z,9.93
2023-04-15T02:31:02.311Z,10.02
2023-04-15T02:34:04.747Z,7.70
2023-04-15T02:37:06.791Z,9.18
2023-04-15T02:40:12.172Z,10.13
2023-04-15T02:43:13.820Z,9.40
2023-04-15T02:46:15.445Z,7.78
2023-04-15T02:49:17.194Z,10.60
2023-04-15T02:52:18.871Z,9.63
2023-04-15T02:55:20.636Z,7.47
2023-04-15T02:58:22.724Z,8.23
2023-04-15T03:01:24.416Z,8.27
2023-04-15T03:04:26.180Z,8.90
2023-04-15T03:07:27.775Z,9.20
2023-04-15T03:10:29.461Z,10.05
2023-04-15T03:13:31.351Z,9.45
2023-04-15T03:16:33.237Z,6.90
2023-04-15T03:19:34.867Z,8.38
2023-04-15T03:22:36.532Z,8.65
2023-04-15T03:25:38.182Z,8.20
2023-04-15T03:28:39.750Z,8.13
2023-04-15T03:31:41.836Z,9.45
2023-04-15T03:34:43.701Z,7.15
2023-04-15T03:37:45.348Z,8.25
2023-04-15T03:40:47.207Z,11.18
2023-04-15T03:43:48.800Z,10.73
2023-04-15T03:46:50.967Z,8.85
2023-04-15T03:49:53.828Z,9.93
2023-04-15T03:52:55.652Z,10.18
2023-04-15T03:55:57.365Z,7.72
2023-04-15T03:58:59.185Z,8.98
2023-04-15T04:02:01.007Z,13.43
2023-04-15T04:05:02.784Z,14.90
2023-04-15T04:08:04.901Z,9.27
2023-04-15T04:11:06.706Z,13.85
2023-04-15T04:14:08.372Z,10.90
2023-04-15T04:17:10.072Z,9.63
2023-04-15T04:20:12.463Z,10.27
2023-04-15T04:23:14.209Z,9.18
2023-04-15T04:26:16.318Z,10.88
2023-04-15T04:29:17.983Z,11.30
2023-04-15T04:32:19.642Z,16.50
2023-04-15T04:35:22.019Z,14.15
2023-04-15T04:38:23.701Z,9.90
2023-04-15T04:41:25.550Z,9.77
2023-04-15T04:44:27.461Z,10.38
2023-04-15T04:47:30.210Z,9.80
2023-04-15T04:50:32.363Z,11.57
2023-04-15T04:53:34.167Z,10.80
2023-04-15T04:56:35.774Z,14.73
2023-04-15T04:59:38.111Z,9.90
2023-04-15T05:02:39.983Z,18.50
2023-04-15T05:05:41.757Z,14.65
2023-04-15T05:08:43.422Z,17.73
2023-04-15T05:11:45.049Z,9.93
2023-04-15T05:14:46.901Z,13.05
2023-04-15T05:17:48.545Z,12.37
2023-04-15T05:20:50.365Z,11.20
2023-04-15T05:23:52.309Z,12.18
2023-04-15T05:26:54.097Z,9.82
2023-04-15T05:29:56.713Z,14.27
2023-04-15T05:32:58.466Z,23.30
2023-04-15T05:36:00.132Z,12.10
2023-04-15T05:39:02.239Z,22.65
2023-04-15T05:42:06.018Z,21.23
2023-04-15T05:45:09.373Z,14.05
2023-04-15T05:48:11.032Z,12.95
2023-04-15T05:51:12.714Z,15.95
2023-04-15T05:54:14.347Z,10.82
2023-04-15T05:57:16.209Z,15.40
2023-04-15T06:00:18.068Z,11.30
2023-04-15T06:03:19.907Z,11.88
2023-04-15T06:06:21.756Z,8.88
2023-04-15T06:09:23.431Z,12.98
2023-04-15T06:12:25.085Z,17.45
2023-04-15T06:15:26.719Z,11.80
2023-04-15T06:18:28.361Z,11.52
2023-04-15T06:21:30.235Z,13.10
2023-04-15T06:24:33.189Z,10.48
2023-04-15T06:27:34.889Z,9.80
2023-04-15T06:30:36.945Z,8.30
2023-04-15T06:33:39.680Z,7.68
2023-04-15T06:36:41.299Z,12.48
2023-04-15T06:39:43.614Z,7.93
2023-04-15T06:42:45.667Z,7.32
2023-04-15T06:45:47.406Z,9.50
2023-04-15T06:48:49.061Z,6.80
2023-04-15T06:51:51.641Z,5.05
2023-04-15T06:54:53.278Z,5.55
2023-04-15T06:57:54.997Z,6.03
2023-04-15T07:00:56.842Z,6.07
2023-04-15T07:03:58.556Z,5.70
2023-04-15T07:07:02.602Z,5.10
2023-04-15T07:10:05.486Z,6.43
2023-04-15T07:13:08.915Z,5.53
2023-04-15T07:16:10.747Z,4.87
2023-04-15T07:19:12.372Z,5.87
2023-04-15T07:22:14.017Z,9.70
2023-04-15T07:25:15.725Z,3.65
2023-04-15T07:28:17.415Z,4.30
2023-04-15T07:31:19.346Z,4.50
2023-04-15T07:34:21.129Z,2.37
2023-04-15T07:37:22.804Z,3.15
2023-04-15T07:40:24.487Z,4.68
2023-04-15T07:43:26.133Z,7.32
2023-04-15T07:46:28.530Z,2.50
2023-04-15T07:49:30.285Z,2.08
2023-04-15T07:52:32.482Z,3.40
2023-04-15T07:55:34.144Z,3.50
2023-04-15T07:58:36.111Z,3.35
2023-04-15T08:01:37.861Z,2.22
2023-04-15T08:04:39.601Z,5.00
2023-04-15T08:07:41.801Z,3.42
2023-04-15T08:10:43.524Z,6.18
2023-04-15T08:13:45.453Z,5.85
2023-04-15T08:16:47.078Z,3.00
2023-04-15T08:19:48.714Z,1.67
2023-04-15T08:22:52.282Z,4.22
2023-04-15T08:25:53.916Z,3.78
2023-04-15T08:28:55.674Z,2.47
2023-04-15T08:31:57.440Z,1.77
2023-04-15T08:34:59.276Z,1.10
2023-04-15T08:38:01.028Z,2.80
2023-04-15T08:41:31.258Z,1.40
2023-04-15T08:44:39.055Z,1.20
2023-04-15T08:47:41.168Z,6.20
2023-04-15T08:50:51.652Z,1.10
2023-04-15T08:54:02.677Z,2.58
2023-04-15T08:57:04.626Z,3.95
2023-04-15T09:00:07.152Z,1.33
2023-04-15T09:03:09.785Z,3.08
2023-04-15T09:06:11.892Z,7.78
2023-04-15T09:09:18.603Z,2.47
2023-04-15T09:12:20.339Z,1.08
2023-04-15T09:15:22.791Z,3.33
2023-04-15T09:18:32.036Z,6.10
2023-04-15T09:21:34.667Z,1.87
2023-04-15T09:24:39.029Z,8.88
2023-04-15T09:27:51.048Z,6.15
2023-04-15T09:30:57.520Z,6.32
2023-04-15T09:33:59.663Z,1.70
2023-04-15T09:37:01.611Z,2.83
2023-04-15T09:40:04.062Z,1.50
2023-04-15T09:43:06.815Z,2.97
2023-04-15T09:46:08.560Z,2.17
2023-04-15T09:49:11.350Z,8.60
2023-04-15T09:52:14.398Z,2.83
2023-04-15T09:55:18.580Z,0.90
2023-04-15T09:58:22.170Z,4.70
2023-04-15T10:01:23.957Z,1.60
2023-04-15T10:04:28.407Z,3.08
2023-04-15T10:07:30.911Z,9.73
2023-04-15T10:10:34.552Z,3.78
2023-04-15T10:13:37.447Z,4.10
2023-04-15T10:16:43.602Z,2.00
2023-04-15T10:19:46.793Z,1.75
2023-04-15T10:22:48.871Z,1.75
2023-04-15T10:25:54.442Z,1.92
2023-04-15T10:28:56.934Z,4.47
2023-04-15T10:32:00.011Z,3.78
2023-04-15T10:35:02.539Z,0.90
2023-04-15T10:38:47.290Z,6.43
2023-04-15T10:42:07.172Z,1.33
2023-04-15T10:45:17.822Z,1.85
2023-04-15T10:48:19.618Z,3.25
2023-04-15T10:51:30.505Z,3.67
2023-04-15T10:54:33.715Z,1.95
2023-04-15T10:57:39.332Z,2.12
2023-04-15T11:00:41.259Z,2.22
2023-04-15T11:03:43.598Z,1.45
2023-04-15T11:06:48.343Z,2.67
2023-04-15T11:09:49.965Z,1.33
2023-04-15T11:12:53.720Z,2.28
2023-04-15T11:15:58.945Z,6.05
2023-04-15T11:19:01.799Z,2.33
2023-04-15T11:22:08.381Z,2.25
2023-04-15T11:25:10.028Z,1.40
2023-04-15T11:28:13.188Z,2.05
2023-04-15T11:31:33.600Z,1.48
2023-04-15T11:34:36.273Z,1.65
2023-04-15T11:37:38.122Z,2.20
2023-04-15T11:40:41.006Z,7.03
2023-04-15T11:43:42.714Z,11.68
2023-04-15T11:46:45.618Z,2.42
2023-04-15T11:49:47.322Z,3.20
2023-04-15T11:52:55.079Z,7.28
2023-04-15T11:55:56.966Z,2.62
2023-04-15T11:58:59.857Z,1.60
2023-04-15T12:02:13.001Z,2.40
2023-04-15T12:05:14.759Z,2.12
2023-04-15T12:08:16.411Z,1.77
2023-04-15T12:11:19.199Z,1.92
2023-04-15T12:14:33.698Z,2.62
2023-04-15T12:17:51.902Z,3.83
2023-04-15T12:20:57.394Z,3.75
2023-04-15T12:24:04.336Z,2.15
2023-04-15T12:27:11.944Z,1.17
2023-04-15T12:30:13.779Z,1.40
2023-04-15T12:33:15.482Z,2.03
2023-04-15T12:36:17.394Z,2.50
2023-04-15T12:39:22.698Z,3.30
2023-04-15T12:42:24.361Z,1.65
2023-04-15T12:45:26.874Z,0.80
2023-04-15T12:48:29.578Z,1.48
2023-04-15T12:51:31.965Z,3.40
2023-04-15T12:54:34.665Z,1.27
2023-04-15T12:57:36.402Z,1.27
2023-04-15T13:00:38.637Z,0.70
2023-04-15T13:03:40.552Z,1.77
2023-04-15T13:06:43.264Z,0.70
2023-04-15T13:09:45.017Z,0.68
2023-04-15T13:12:48.045Z,0.90
2023-04-15T13:15:49.886Z,0.73
2023-04-15T13:18:51.812Z,0.77
2023-04-15T13:21:53.486Z,0.90
2023-04-15T13:24:55.182Z,0.65
2023-04-15T13:27:57.712Z,1.00
2023-04-15T13:31:00.436Z,1.30
2023-04-15T13:34:02.142Z,1.67
2023-04-15T13:37:10.034Z,1.15
2023-04-15T13:40:11.988Z,2.45
2023-04-15T13:43:13.668Z,1.23
2023-04-15T13:46:15.590Z,1.10
2023-04-15T13:49:17.315Z,6.10
2023-04-15T13:52:19.216Z,48.47
2023-04-15T13:55:23.749Z,2.55
2023-04-15T13:58:27.261Z,0.88
2023-04-15T14:01:29.738Z,0.98
2023-04-15T14:04:32.353Z,0.70
2023-04-15T14:07:34.347Z,0.75
2023-04-15T14:10:36.048Z,0.60
2023-04-15T14:13:37.943Z,2.58
2023-04-15T14:16:40.169Z,1.75
2023-04-15T14:19:41.963Z,3.05
2023-04-15T14:22:43.606Z,1.27
2023-04-15T14:25:47.927Z,1.50
2023-04-15T14:28:50.378Z,1.40
2023-04-15T14:32:07.195Z,0.70
2023-04-15T14:35:14.247Z,0.73
2023-04-15T14:38:16.086Z,0.60
2023-04-15T14:41:17.771Z,4.00
2023-04-15T14:44:19.435Z,0.95
2023-04-15T14:47:21.101Z,1.30
2023-04-15T14:50:23.163Z,7.40
2023-04-15T14:53:24.838Z,4.20
2023-04-15T14:56:27.334Z,1.92
2023-04-15T14:59:29.110Z,2.33
2023-04-15T15:02:39.042Z,2.33
2023-04-15T15:05:42.133Z,1.10
2023-04-15T15:08:44.125Z,8.65
2023-04-15T15:11:45.788Z,1.50
2023-04-15T15:14:47.834Z,5.78
2023-04-15T15:17:51.038Z,2.17
2023-04-15T15:20:52.723Z,2.25
2023-04-15T15:23:54.433Z,1.33
2023-04-15T15:26:57.301Z,1.15
2023-04-15T15:29:58.961Z,14.43
2023-04-15T15:33:00.777Z,13.18
2023-04-15T15:36:03.754Z,2.33
2023-04-15T15:39:05.940Z,2.53
2023-04-15T15:42:08.061Z,2.40
2023-04-15T15:45:10.287Z,2.35
2023-04-15T15:48:12.115Z,1.25
2023-04-15T15:51:13.995Z,1.20
2023-04-15T15:54:15.699Z,1.23
2023-04-15T15:57:17.502Z,1.70
2023-04-15T16:00:19.217Z,3.10
2023-04-15T16:03:21.076Z,1.17
2023-04-15T16:06:22.926Z,1.45
2023-04-15T16:09:24.606Z,2.08
2023-04-15T16:12:27.369Z,2.33
2023-04-15T16:15:29.298Z,2.42
2023-04-15T16:18:32.043Z,3.85
2023-04-15T16:21:35.518Z,3.35
2023-04-15T16:24:37.373Z,1.58
2023-04-15T16:30:44.049Z,12.35
2023-04-15T16:33:46.351Z,6.47
2023-04-15T16:36:48.303Z,7.50
2023-04-15T16:39:50.092Z,3.60
2023-04-15T16:42:51.918Z,4.43
2023-04-15T16:45:53.903Z,1.67
2023-04-15T16:48:57.011Z,2.35
2023-04-15T16:51:58.868Z,1.08
2023-04-15T16:55:00.623Z,1.73
2023-04-15T16:58:03.942Z,2.95
2023-04-15T17:01:06.820Z,1.50
2023-04-15T17:04:09.143Z,1.70
2023-04-15T17:07:11.831Z,1.98
2023-04-15T17:10:16.325Z,1.33
2023-04-15T17:13:17.999Z,2.30
2023-04-15T17:16:20.015Z,2.45
2023-04-15T17:19:22.257Z,2.17
2023-04-15T17:22:23.965Z,2.30
2023-04-15T17:25:25.704Z,2.58
2023-04-15T17:28:27.384Z,6.20
2023-04-15T17:31:30.544Z,4.82
2023-04-15T17:34:50.660Z,3.22
2023-04-15T17:37:52.860Z,3.42
2023-04-15T17:40:55.180Z,3.60
2023-04-15T17:43:57.162Z,4.00
2023-04-15T17:46:59.395Z,8.68
2023-04-15T17:50:01.595Z,32.83
2023-04-15T17:53:04.156Z,109.80
2023-04-15T17:56:06.088Z,82.72
2023-04-15T17:59:09.751Z,60.05
2023-04-15T18:02:15.555Z,77.20
2023-04-15T18:05:19.857Z,59.75
2023-04-15T18:08:21.868Z,39.78
2023-04-15T18:11:24.111Z,24.92
2023-04-15T18:14:34.106Z,13.43
2023-04-15T18:17:37.123Z,15.57
2023-04-15T18:20:39.998Z,30.27
2023-04-15T18:23:42.773Z,33.55
2023-04-15T18:26:47.558Z,49.45
2023-04-15T18:29:52.196Z,69.78
2023-04-15T18:32:54.081Z,60.42
2023-04-15T18:35:57.821Z,45.55
2023-04-15T18:39:00.279Z,36.15
2023-04-15T18:42:02.702Z,32.47
2023-04-15T18:45:05.474Z,39.95
2023-04-15T18:48:07.479Z,29.27
2023-04-15T18:51:09.603Z,32.88
2023-04-15T18:54:13.896Z,25.20
2023-04-15T18:57:20.421Z,17.52
2023-04-15T19:00:33.299Z,59.97
2023-04-15T19:03:35.255Z,12.52
2023-04-15T19:06:38.829Z,14.45
2023-04-15T19:09:41.621Z,7.87
2023-04-15T19:12:43.935Z,12.35
2023-04-15T19:15:46.227Z,10.77
2023-04-15T19:18:48.591Z,7.72
2023-04-15T19:21:51.419Z,19.37
2023-04-15T19:24:53.888Z,16.65
2023-04-15T19:27:57.920Z,7.70
2023-04-15T19:34:18.069Z,5.28
2023-04-15T19:37:20.546Z,9.20
2023-04-15T19:40:23.131Z,9.68
2023-04-15T19:43:25.657Z,12.63
2023-04-15T19:46:30.323Z,13.88
2023-04-15T19:49:32.306Z,14.85
2023-04-15T19:52:35.487Z,16.05
2023-04-15T19:55:38.204Z,17.37
2023-04-15T19:58:39.913Z,9.85
2023-04-15T20:01:44.988Z,9.85
2023-04-15T20:04:47.898Z,10.38
2023-04-15T20:07:52.309Z,9.57
2023-04-15T20:10:55.256Z,8.88
2023-04-15T20:13:57.878Z,11.32
2023-04-15T20:17:01.277Z,14.38
2023-04-15T20:20:05.789Z,24.85
2023-04-15T20:23:07.732Z,15.88
2023-04-15T20:26:09.877Z,13.95
2023-04-15T20:29:13.893Z,11.93
2023-04-15T20:32:15.888Z,11.05
2023-04-15T20:35:19.844Z,10.10
2023-04-15T20:38:22.476Z,13.10
2023-04-15T20:41:24.724Z,12.60
2023-04-15T20:44:26.721Z,9.68
2023-04-15T20:47:28.915Z,8.73
2023-04-15T20:50:31.489Z,9.88
2023-04-15T20:53:34.607Z,13.35
2023-04-15T20:56:36.721Z,22.83
2023-04-15T20:59:38.479Z,30.27
2023-04-15T21:02:40.980Z,30.95
2023-04-15T21:05:43.725Z,39.08
2023-04-15T21:08:45.778Z,30.02
2023-04-15T21:12:00.388Z,30.48
2023-04-15T21:15:02.531Z,23.20
2023-04-15T21:18:04.392Z,23.58
2023-04-15T21:21:06.153Z,25.15
2023-04-15T21:24:07.957Z,27.23
2023-04-15T21:27:09.814Z,30.30
2023-04-15T21:30:12.338Z,26.35
2023-04-15T21:33:13.990Z,30.17
2023-04-15T21:36:15.645Z,24.08
2023-04-15T21:39:17.394Z,24.80
2023-04-15T21:42:19.175Z,20.85
2023-04-15T21:45:20.838Z,16.58
2023-04-15T21:48:22.618Z,16.33
2023-04-15T21:51:24.382Z,16.08
2023-04-15T21:54:26.190Z,14.32
2023-04-15T21:57:27.872Z,11.43
2023-04-15T22:00:29.734Z,12.02
2023-04-15T22:03:34.293Z,15.55
2023-04-15T22:06:36.457Z,11.10
2023-04-15T22:09:38.079Z,14.00
2023-04-15T22:12:42.829Z,16.20
2023-04-15T22:15:44.533Z,24.05
2023-04-15T22:18:46.184Z,17.45
2023-04-15T22:21:47.825Z,23.45
2023-04-15T22:24:49.507Z,22.40
2023-04-15T22:27:51.208Z,19.20
2023-04-15T22:30:54.703Z,21.50
2023-04-15T22:33:56.402Z,22.33
2023-04-15T22:36:58.097Z,18.10
2023-04-15T22:39:59.877Z,20.40
2023-04-15T22:43:01.617Z,22.17
2023-04-15T22:46:03.283Z,19.40
2023-04-15T22:49:08.394Z,21.37
2023-04-15T22:52:14.521Z,18.20
2023-04-15T22:55:22.024Z,24.50
2023-04-15T22:58:23.791Z,19.25
2023-04-15T23:01:25.553Z,16.58
2023-04-15T23:04:28.295Z,16.67
2023-04-15T23:07:30.193Z,18.23
2023-04-15T23:10:31.867Z,16.60
2023-04-15T23:13:35.694Z,17.52
2023-04-15T23:16:37.428Z,16.50
2023-04-15T23:19:39.374Z,17.85
2023-04-15T23:22:42.083Z,16.08
2023-04-15T23:25:43.772Z,15.48
2023-04-15T23:28:45.398Z,14.98
2023-04-15T23:31:47.246Z,12.70
2023-04-15T23:34:48.903Z,10.65
2023-04-15T23:37:50.858Z,15.45
2023-04-15T23:40:52.673Z,15.23
2023-04-15T23:43:54.334Z,16.50
2023-04-15T23:46:56.050Z,13.82
2023-04-15T23:49:57.887Z,12.55
2023-04-15T23:52:59.525Z,12.13
2023-04-15T23:56:01.498Z,14.93
2023-04-15T23:59:03.122Z,11.43
